Time;durP1;ratioP1;P1;durP2;ratioP2;P2;SDS_P1;SDS_P2;PMS_P1;PMS_P2;Temp;Humidity;BMP_temperature;BMP_pressure;BME280_temperature;BME280_humidity;BME280_pressure;Samples;Min_cycle;Max_cycle;Signal;HPM_P1;HPM_P2
2021/10/18 00:01:49;;;;;;;5.37;2.07;;;;;;;9.67;91.34;101282.50;5078680;28;20170;-74
2021/10/18 00:04:15;;;;;;;2.83;1.73;;;;;;;9.84;91.78;101294.66;5078190;28;20194;-73
2021/10/18 00:06:40;;;;;;;3.50;1.63;;;;;;;9.93;91.41;101286.66;5096669;28;20189;-73
2021/10/18 00:09:05;;;;;;;1.77;1.43;;;;;;;9.87;92.23;101298.75;5097213;28;20172;-73
2021/10/18 00:11:31;;;;;;;3.33;1.70;;;;;;;9.73;92.84;101295.03;5096830;28;20573;-73
2021/10/18 00:13:57;;;;;;;4.07;1.80;;;;;;;9.65;93.13;101296.44;5078286;28;20639;-73
2021/10/18 00:16:23;;;;;;;1.83;1.73;;;;;;;9.66;95.17;101294.53;5096665;28;20665;-73
2021/10/18 00:18:49;;;;;;;1.63;1.27;;;;;;;9.63;96.93;101298.63;5096791;28;20207;-73
2021/10/18 00:21:14;;;;;;;1.27;1.17;;;;;;;9.71;98.69;101291.78;5096650;28;20170;-73
2021/10/18 00:23:39;;;;;;;1.60;1.17;;;;;;;9.71;100.00;101289.03;5078262;28;20292;-74
2021/10/18 00:26:05;;;;;;;1.80;1.53;;;;;;;9.60;100.00;101284.75;5092691;28;20188;-73
2021/10/18 00:28:30;;;;;;;2.03;1.30;;;;;;;9.59;100.00;101281.22;5097021;28;20246;-73
2021/10/18 00:30:56;;;;;;;1.93;1.30;;;;;;;9.46;100.00;101281.84;5097187;28;20184;-73
2021/10/18 00:33:21;;;;;;;3.10;1.10;;;;;;;9.36;100.00;101293.63;5078758;28;20256;-73
2021/10/18 00:35:47;;;;;;;1.80;1.43;;;;;;;9.24;100.00;101290.44;5096967;28;20173;-73
2021/10/18 00:38:12;;;;;;;1.93;1.57;;;;;;;9.14;100.00;101299.50;5097022;28;20552;-73
2021/10/18 00:40:37;;;;;;;2.90;1.60;;;;;;;9.09;100.00;101293.22;5095042;28;20173;-73
2021/10/18 00:43:04;;;;;;;1.27;1.23;;;;;;;9.09;100.00;101296.78;5093627;28;20181;-73
2021/10/18 00:45:29;;;;;;;2.10;1.90;;;;;;;9.07;100.00;101304.41;5093639;28;20649;-73
2021/10/18 00:47:55;;;;;;;2.70;1.80;;;;;;;9.13;99.84;101300.59;5075472;28;20178;-73
2021/10/18 00:50:20;;;;;;;1.23;1.13;;;;;;;9.14;100.00;101301.41;5093763;28;20174;-73
2021/10/18 00:52:46;;;;;;;1.93;1.50;;;;;;;9.05;100.00;101297.63;5093853;28;20223;-72
2021/10/18 00:55:12;;;;;;;2.33;1.43;;;;;;;8.99;100.00;101304.22;5093200;28;20617;-74
2021/10/18 00:57:38;;;;;;;2.10;1.30;;;;;;;8.94;100.00;101289.47;5093599;28;20178;-73
2021/10/18 01:00:06;;;;;;;1.63;1.13;;;;;;;9.00;100.00;101297.66;5093512;28;20643;-73
2021/10/18 01:02:31;;;;;;;1.50;1.40;;;;;;;8.98;100.00;101286.22;5093406;28;20178;-73
2021/10/18 01:04:57;;;;;;;1.13;1.13;;;;;;;8.96;100.00;101286.47;5093250;28;20221;-74
2021/10/18 01:07:22;;;;;;;2.80;1.80;;;;;;;8.96;100.00;101281.03;5093318;28;20190;-73
2021/10/18 01:09:48;;;;;;;2.03;1.30;;;;;;;9.00;100.00;101278.59;5093373;28;20180;-74
2021/10/18 01:12:13;;;;;;;1.97;1.83;;;;;;;8.98;100.00;101275.31;5093249;28;20613;-73
2021/10/18 01:14:39;;;;;;;2.87;1.60;;;;;;;9.00;98.85;101267.69;5093095;28;20216;-73
2021/10/18 01:17:05;;;;;;;4.53;1.93;;;;;;;9.03;96.86;101273.38;5074996;28;20174;-72
2021/10/18 01:19:30;;;;;;;3.83;1.67;;;;;;;9.13;93.06;101276.06;5093151;28;20174;-73
2021/10/18 01:22:00;;;;;;;1.53;1.40;;;;;;;9.27;91.15;101283.63;5093133;28;20610;-73
2021/10/18 01:24:26;;;;;;;1.90;1.20;;;;;;;9.27;89.65;101286.34;5092881;28;20284;-73
2021/10/18 01:26:51;;;;;;;1.70;1.50;;;;;;;9.34;89.46;101284.91;5074846;28;20189;-74
2021/10/18 01:29:17;;;;;;;1.73;1.60;;;;;;;9.46;90.18;101285.38;5092950;28;20166;-73
2021/10/18 01:31:42;;;;;;;1.43;1.20;;;;;;;9.54;87.97;101297.59;5092918;28;20205;-73
2021/10/18 01:34:08;;;;;;;2.20;1.63;;;;;;;9.59;87.14;101294.03;5074545;28;20574;-73
2021/10/18 01:36:34;;;;;;;2.47;1.40;;;;;;;9.59;87.58;101297.59;5074865;28;20702;-73
2021/10/18 01:38:59;;;;;;;1.90;1.30;;;;;;;9.63;88.42;101300.56;5074651;28;20174;-73
2021/10/18 01:41:24;;;;;;;4.07;1.43;;;;;;;9.67;87.98;101301.59;5092698;28;20173;-73
2021/10/18 01:43:50;;;;;;;2.77;1.40;;;;;;;9.68;89.10;101309.50;5092391;28;20250;-73
2021/10/18 01:46:15;;;;;;;4.03;1.33;;;;;;;9.66;90.65;101311.69;5074399;28;20185;-73
2021/10/18 01:48:41;;;;;;;1.53;1.43;;;;;;;9.58;92.23;101298.69;5092528;28;20173;-73
2021/10/18 01:51:08;;;;;;;1.77;1.20;;;;;;;9.53;93.63;101296.78;5092496;28;20540;-73
2021/10/18 01:53:33;;;;;;;2.90;1.53;;;;;;;9.44;95.74;101297.69;5073912;28;20185;-74
2021/10/18 01:55:59;;;;;;;3.20;1.93;;;;;;;9.45;97.24;101302.03;5073787;28;20282;-73
2021/10/18 01:58:24;;;;;;;2.53;1.73;;;;;;;9.30;98.54;101293.97;5074315;28;20635;-74
2021/10/18 02:00:50;;;;;;;2.33;1.63;;;;;;;8.98;100.00;101294.41;5092363;28;20215;-73
2021/10/18 02:03:15;;;;;;;4.37;1.80;;;;;;;8.78;100.00;101292.56;5073653;28;20177;-73
2021/10/18 02:05:40;;;;;;;3.67;2.23;;;;;;;8.87;100.00;101294.44;5091537;28;20316;-74
2021/10/18 02:08:06;;;;;;;3.23;1.83;;;;;;;8.93;100.00;101292.50;5091758;28;20534;-73
2021/10/18 02:10:31;;;;;;;2.60;2.27;;;;;;;8.95;100.00;101295.75;5073491;28;20621;-73
2021/10/18 02:12:57;;;;;;;2.53;1.97;;;;;;;9.02;100.00;101290.81;5073373;28;20640;-73
2021/10/18 02:15:22;;;;;;;2.20;1.80;;;;;;;9.21;100.00;101297.25;5091165;28;20280;-73
2021/10/18 02:17:48;;;;;;;2.10;1.90;;;;;;;9.35;100.00;101288.47;5073327;28;20582;-74
2021/10/18 02:20:15;;;;;;;2.93;1.87;;;;;;;9.45;100.00;101289.22;5073214;28;20174;-73
2021/10/18 02:22:41;;;;;;;2.17;1.83;;;;;;;9.43;99.78;101290.59;5091409;28;20170;-73
2021/10/18 02:25:09;;;;;;;2.17;1.83;;;;;;;9.47;100.00;101280.75;5072792;28;20672;-74
2021/10/18 02:27:35;;;;;;;5.07;2.17;;;;;;;9.15;100.00;101286.69;5091256;28;20170;-74
2021/10/18 02:30:04;;;;;;;2.10;1.90;;;;;;;9.05;100.00;101289.44;5091234;28;20257;-73
2021/10/18 02:32:29;;;;;;;2.27;2.17;;;;;;;8.75;100.00;101283.03;5091251;28;20307;-74
2021/10/18 02:34:54;;;;;;;3.53;2.40;;;;;;;8.92;100.00;101294.41;5090684;28;20178;-74
2021/10/18 02:37:20;;;;;;;6.47;2.33;;;;;;;8.84;100.00;101299.63;5073251;28;20184;-74
2021/10/18 02:39:45;;;;;;;2.30;2.10;;;;;;;9.07;100.00;101289.97;5091225;28;20193;-74
2021/10/18 02:42:10;;;;;;;2.60;2.30;;;;;;;9.16;100.00;101288.31;5072864;28;20206;-73
2021/10/18 02:44:36;;;;;;;2.57;2.03;;;;;;;9.14;100.00;101287.78;5072404;28;20654;-73
2021/10/18 02:47:01;;;;;;;6.13;2.43;;;;;;;9.01;100.00;101274.75;5090953;28;20536;-73
2021/10/18 02:49:26;;;;;;;4.50;1.80;;;;;;;9.16;100.00;101278.22;5090950;28;20865;-74
2021/10/18 02:51:52;;;;;;;2.93;1.87;;;;;;;9.14;100.00;101279.59;5072683;28;20178;-74
2021/10/18 02:54:17;;;;;;;1.53;1.43;;;;;;;9.21;100.00;101283.63;5090614;28;20177;-74
2021/10/18 02:56:43;;;;;;;2.77;1.53;;;;;;;9.14;100.00;101274.97;5072104;28;20541;-73
2021/10/18 02:59:08;;;;;;;1.70;1.40;;;;;;;9.00;100.00;101281.31;5072686;28;20197;-73
2021/10/18 03:01:33;;;;;;;7.07;1.80;;;;;;;8.90;100.00;101318.41;5072582;28;20255;-73
2021/10/18 03:03:59;;;;;;;2.83;2.20;;;;;;;8.88;100.00;101289.81;5089702;28;20200;-73
2021/10/18 03:06:25;;;;;;;1.53;1.43;;;;;;;8.91;100.00;101291.97;5090700;28;20197;-73
2021/10/18 03:08:50;;;;;;;1.87;1.77;;;;;;;8.86;100.00;101292.00;5072524;28;20520;-73
2021/10/18 03:11:16;;;;;;;2.40;1.93;;;;;;;8.68;100.00;101290.72;5072408;28;20170;-74
2021/10/18 03:13:41;;;;;;;2.87;2.20;;;;;;;8.81;100.00;101287.34;5072148;28;20180;-73
2021/10/18 03:16:07;;;;;;;2.37;2.17;;;;;;;8.68;100.00;101287.97;5072420;28;20178;-74
2021/10/18 03:18:32;;;;;;;2.73;2.20;;;;;;;8.64;100.00;101295.88;5090552;28;20657;-73
2021/10/18 03:20:57;;;;;;;4.43;1.97;;;;;;;8.78;100.00;101293.38;5090535;28;20510;-73
2021/10/18 03:23:23;;;;;;;1.80;1.70;;;;;;;8.53;100.00;101285.28;5072215;28;20192;-73
2021/10/18 03:25:48;;;;;;;3.63;2.33;;;;;;;8.56;100.00;101284.75;5090069;28;20205;-73
2021/10/18 03:28:13;;;;;;;2.03;1.63;;;;;;;8.43;100.00;101290.78;5090462;28;20178;-74
2021/10/18 03:30:39;;;;;;;2.83;2.07;;;;;;;8.53;100.00;101297.00;5090381;28;20238;-73
2021/10/18 03:33:04;;;;;;;1.80;1.60;;;;;;;8.73;100.00;101304.31;5090405;28;20193;-73
2021/10/18 03:35:30;;;;;;;1.73;1.63;;;;;;;8.50;100.00;101294.81;5090092;28;20174;-73
2021/10/18 03:37:55;;;;;;;2.23;1.77;;;;;;;8.66;100.00;101306.47;5090381;28;20169;-73
2021/10/18 03:40:21;;;;;;;2.17;1.60;;;;;;;8.70;100.00;101304.88;5090316;28;20632;-74
2021/10/18 03:42:47;;;;;;;4.47;2.07;;;;;;;8.67;100.00;101308.13;5090549;28;20208;-73
2021/10/18 03:45:12;;;;;;;2.47;2.00;;;;;;;8.55;100.00;101307.63;5072070;28;20237;-73
2021/10/18 03:47:38;;;;;;;4.43;1.57;;;;;;;8.57;100.00;101311.72;5072282;28;20169;-74
2021/10/18 03:50:04;;;;;;;2.50;1.57;;;;;;;8.64;100.00;101319.56;5072163;28;20265;-73
2021/10/18 03:52:29;;;;;;;3.53;1.17;;;;;;;8.63;100.00;101301.59;5090442;28;20227;-74
2021/10/18 03:54:55;;;;;;;4.23;1.57;;;;;;;8.52;100.00;101313.59;5071713;28;20178;-73
2021/10/18 03:57:20;;;;;;;5.60;1.43;;;;;;;8.49;100.00;101308.72;5090433;28;20184;-74
2021/10/18 03:59:45;;;;;;;1.30;1.20;;;;;;;8.44;100.00;101316.91;5091040;28;20621;-74
2021/10/18 04:02:11;;;;;;;1.27;1.10;;;;;;;8.38;100.00;101312.56;5072105;28;20644;-74
2021/10/18 04:04:36;;;;;;;3.03;1.43;;;;;;;8.34;100.00;101315.00;5071762;28;20622;-73
2021/10/18 04:07:02;;;;;;;1.57;1.47;;;;;;;8.31;100.00;101316.34;5090460;28;20536;-73
2021/10/18 04:09:28;;;;;;;2.20;1.47;;;;;;;8.31;100.00;101318.25;5072057;28;20184;-74
2021/10/18 04:11:53;;;;;;;1.43;1.33;;;;;;;8.31;100.00;101326.44;5071967;28;20625;-73
2021/10/18 04:14:19;;;;;;;2.07;1.07;;;;;;;8.18;100.00;101330.53;5089743;28;20444;-73
2021/10/18 04:16:44;;;;;;;2.03;1.73;;;;;;;8.06;100.00;101325.34;5093130;28;20705;-73
2021/10/18 04:19:09;;;;;;;1.67;1.50;;;;;;;7.96;100.00;101341.69;5093886;28;20166;-73
2021/10/18 04:21:35;;;;;;;1.63;1.53;;;;;;;7.80;100.00;101334.59;5075496;28;20166;-73
2021/10/18 04:24:00;;;;;;;5.73;1.50;;;;;;;7.79;100.00;101340.31;5075361;28;20213;-74
2021/10/18 04:26:26;;;;;;;1.57;1.47;;;;;;;7.74;100.00;101343.84;5093738;28;20218;-74
2021/10/18 04:28:51;;;;;;;1.47;1.37;;;;;;;7.66;100.00;101333.47;5075388;28;20258;-73
2021/10/18 04:31:17;;;;;;;1.83;1.00;;;;;;;7.69;100.00;101341.94;5093995;28;20174;-74
2021/10/18 04:33:42;;;;;;;1.50;1.40;;;;;;;7.75;100.00;101343.56;5075126;28;20178;-73
2021/10/18 04:36:07;;;;;;;1.90;1.40;;;;;;;7.81;100.00;101346.28;5075227;28;20182;-74
2021/10/18 04:38:33;;;;;;;1.23;1.23;;;;;;;7.84;100.00;101337.59;5075522;28;20194;-74
2021/10/18 04:40:58;;;;;;;3.80;1.83;;;;;;;7.87;100.00;101339.78;5075197;28;20178;-74
2021/10/18 04:43:24;;;;;;;2.07;1.40;;;;;;;7.83;100.00;101339.50;5075070;28;20177;-73
2021/10/18 04:45:49;;;;;;;4.20;1.90;;;;;;;7.84;100.00;101337.59;5074943;28;20238;-74
2021/10/18 04:48:14;;;;;;;2.60;1.23;;;;;;;7.97;100.00;101337.06;5093268;28;20201;-74
2021/10/18 04:50:40;;;;;;;2.23;1.53;;;;;;;8.02;100.00;101350.66;5075211;28;20182;-74
2021/10/18 04:53:05;;;;;;;7.97;2.00;;;;;;;8.02;100.00;101345.22;5074976;28;20216;-73
2021/10/18 04:55:31;;;;;;;1.77;1.67;;;;;;;8.06;100.00;101344.41;5074242;28;20184;-74
2021/10/18 04:57:59;;;;;;;1.47;1.37;;;;;;;8.26;100.00;101349.03;5074924;28;20170;-74
2021/10/18 05:00:27;;;;;;;3.00;1.77;;;;;;;8.36;100.00;101337.34;5093037;28;20178;-73
2021/10/18 05:02:52;;;;;;;3.93;1.70;;;;;;;8.41;100.00;101353.69;5074671;28;20170;-74
2021/10/18 05:05:19;;;;;;;2.90;1.70;;;;;;;8.43;100.00;101359.66;5092620;28;20263;-74
2021/10/18 05:07:44;;;;;;;2.30;1.73;;;;;;;8.44;100.00;101357.75;5093154;28;20471;-74
2021/10/18 05:10:11;;;;;;;1.57;1.40;;;;;;;8.45;100.00;101359.38;5074640;28;20635;-73
2021/10/18 05:12:38;;;;;;;1.87;1.73;;;;;;;8.41;100.00;101356.41;5092778;28;20683;-74
2021/10/18 05:15:04;;;;;;;1.97;1.73;;;;;;;8.40;100.00;101360.22;5074320;28;20685;-74
2021/10/18 05:17:30;;;;;;;3.10;2.40;;;;;;;8.35;100.00;101358.31;5074341;28;20213;-73
2021/10/18 05:19:55;;;;;;;3.00;1.87;;;;;;;8.40;100.00;101357.50;5074572;28;20210;-74
2021/10/18 05:22:20;;;;;;;3.27;2.00;;;;;;;8.47;100.00;101368.91;5074711;28;20217;-73
2021/10/18 05:24:46;;;;;;;1.60;1.50;;;;;;;8.55;99.77;101362.09;5074111;28;20620;-73
2021/10/18 05:27:11;;;;;;;1.70;1.60;;;;;;;8.59;98.64;101357.72;5091775;28;20636;-74
2021/10/18 05:29:36;;;;;;;1.57;1.47;;;;;;;8.59;97.50;101371.34;5092430;28;20178;-73
2021/10/18 05:32:02;;;;;;;1.83;1.50;;;;;;;8.64;95.51;101365.88;5074143;28;20178;-73
2021/10/18 05:34:27;;;;;;;1.80;1.70;;;;;;;8.66;95.56;101366.41;5092103;28;20174;-73
2021/10/18 05:36:53;;;;;;;1.60;1.30;;;;;;;8.71;94.38;101376.50;5074223;28;20174;-73
2021/10/18 05:39:18;;;;;;;1.57;1.47;;;;;;;8.72;93.59;101381.69;5074154;28;20178;-73
2021/10/18 05:41:43;;;;;;;1.87;1.60;;;;;;;8.76;92.48;101380.03;5092233;28;20507;-78
2021/10/18 05:44:09;;;;;;;1.20;1.10;;;;;;;8.77;92.17;101380.84;5073848;28;20612;-73
2021/10/18 05:46:34;;;;;;;1.40;1.30;;;;;;;8.82;91.24;101378.09;5092205;28;20446;-72
2021/10/18 05:48:59;;;;;;;1.27;1.10;;;;;;;8.84;90.35;101382.19;5092147;28;20174;-73
2021/10/18 05:51:26;;;;;;;1.37;1.27;;;;;;;8.86;90.58;101374.56;5092246;28;20178;-72
2021/10/18 05:53:51;;;;;;;2.07;1.10;;;;;;;8.88;90.61;101386.00;5091750;28;20694;-73
2021/10/18 05:56:17;;;;;;;1.40;1.17;;;;;;;8.86;90.24;101399.09;5091542;28;20376;-74
2021/10/18 05:58:42;;;;;;;1.63;1.47;;;;;;;8.88;89.53;101386.00;5091832;28;20621;-74
2021/10/18 06:01:07;;;;;;;0.67;0.50;;;;;;;8.87;89.79;101397.19;5091929;28;20174;-74
2021/10/18 06:03:33;;;;;;;1.97;1.13;;;;;;;8.91;88.79;101395.53;5091641;28;20186;-73
2021/10/18 06:06:00;;;;;;;3.47;1.57;;;;;;;8.89;89.53;101384.91;5091586;28;20200;-74
2021/10/18 06:08:26;;;;;;;2.80;1.80;;;;;;;8.88;88.74;101396.91;5092056;28;20174;-75
2021/10/18 06:10:51;;;;;;;1.50;1.40;;;;;;;8.88;89.12;101401.53;5091729;28;20687;-74
2021/10/18 06:13:16;;;;;;;1.77;1.67;;;;;;;8.83;89.25;101391.47;5091573;28;20227;-74
2021/10/18 06:15:42;;;;;;;2.00;1.77;;;;;;;8.85;89.39;101393.91;5091342;28;20621;-74
2021/10/18 06:18:17;;;;;;;2.53;1.87;;;;;;;8.83;90.12;101404.28;5091541;28;20174;-74
2021/10/18 06:20:46;;;;;;;1.60;1.50;;;;;;;8.75;91.00;101405.63;5073393;28;20465;-73
2021/10/18 06:23:13;;;;;;;1.83;1.70;;;;;;;8.69;90.51;101404.03;5091375;28;20178;-74
2021/10/18 06:25:39;;;;;;;3.83;1.80;;;;;;;8.65;90.60;101398.28;5072862;28;20221;-75
2021/10/18 06:28:05;;;;;;;2.30;1.33;;;;;;;8.66;91.29;101410.00;5091195;28;20644;-74
2021/10/18 06:30:31;;;;;;;1.80;1.57;;;;;;;8.61;91.30;101407.28;5089914;28;20175;-74
2021/10/18 06:32:57;;;;;;;2.20;1.40;;;;;;;8.58;91.86;101407.84;5070325;28;20185;-74
2021/10/18 06:35:22;;;;;;;2.20;1.73;;;;;;;8.57;92.92;101408.94;5091564;28;20188;-75
2021/10/18 06:37:48;;;;;;;3.20;2.37;;;;;;;8.55;92.46;101400.22;5073525;28;20625;-74
2021/10/18 06:40:15;;;;;;;1.73;1.63;;;;;;;8.53;92.15;101405.13;5090624;28;20205;-75
2021/10/18 06:42:40;;;;;;;1.93;1.40;;;;;;;8.57;91.35;101408.94;5091484;28;20254;-73
2021/10/18 06:45:06;;;;;;;1.60;1.50;;;;;;;8.53;91.17;101403.22;5091264;28;20304;-74
2021/10/18 06:47:32;;;;;;;4.03;1.83;;;;;;;8.48;91.96;101410.56;5073256;28;20230;-74
2021/10/18 06:49:58;;;;;;;3.57;1.73;;;;;;;8.43;92.09;101408.69;5091408;28;20624;-74
2021/10/18 06:52:26;;;;;;;1.43;1.27;;;;;;;8.45;92.10;101416.56;5091393;28;20184;-73
2021/10/18 06:54:52;;;;;;;1.93;1.33;;;;;;;8.51;91.14;101416.28;5091003;28;20234;-74
2021/10/18 06:57:17;;;;;;;2.10;1.73;;;;;;;8.55;91.22;101422.84;5091343;28;20209;-74
2021/10/18 06:59:42;;;;;;;4.53;1.70;;;;;;;8.59;90.54;101434.00;5073166;28;20188;-74
2021/10/18 07:02:07;;;;;;;2.73;1.53;;;;;;;8.64;90.18;101436.72;5073198;28;20182;-72
2021/10/18 07:04:35;;;;;;;3.13;1.90;;;;;;;8.69;90.06;101430.47;5091050;28;20205;-73
2021/10/18 07:07:02;;;;;;;2.30;1.30;;;;;;;8.75;89.35;101435.59;5072926;28;20193;-73
2021/10/18 07:09:28;;;;;;;2.73;2.17;;;;;;;8.81;88.39;101439.13;5072963;28;20178;-72
2021/10/18 07:11:54;;;;;;;1.70;1.60;;;;;;;8.85;88.24;101441.06;5091254;28;20184;-72
2021/10/18 07:14:19;;;;;;;1.70;1.60;;;;;;;8.90;88.25;101441.03;5091216;28;20200;-73
2021/10/18 07:16:45;;;;;;;5.07;1.30;;;;;;;8.95;87.40;101457.38;5091130;28;20609;-73
2021/10/18 07:19:10;;;;;;;2.07;1.30;;;;;;;9.01;87.68;101450.00;5091064;28;20533;-72
2021/10/18 07:21:36;;;;;;;7.23;1.60;;;;;;;9.06;87.25;101457.34;5072890;28;20586;-72
2021/10/18 07:24:04;;;;;;;1.70;1.30;;;;;;;9.10;87.76;101451.06;5072577;28;20205;-73
2021/10/18 07:26:30;;;;;;;3.27;1.33;;;;;;;9.12;87.19;101448.91;5072774;28;20268;-72
2021/10/18 07:28:56;;;;;;;1.30;1.20;;;;;;;9.19;86.38;101454.06;5091001;28;20173;-78
2021/10/18 07:31:21;;;;;;;1.00;1.00;;;;;;;9.26;86.08;101457.31;5090891;28;20689;-76
2021/10/18 07:33:46;;;;;;;1.40;1.30;;;;;;;9.34;85.22;101450.47;5090787;28;20189;-80
2021/10/18 07:36:21;;;;;;;2.43;2.23;;;;;;;9.37;85.69;101453.44;5072678;28;20232;-79
2021/10/18 07:38:47;;;;;;;1.53;1.43;;;;;;;9.44;85.68;101450.44;5072708;28;20617;-77
2021/10/18 07:41:12;;;;;;;1.37;1.27;;;;;;;9.46;85.71;101457.22;5072641;28;20265;-74
2021/10/18 07:43:38;;;;;;;2.27;2.07;;;;;;;9.55;86.53;101460.22;5090906;28;20205;-77
2021/10/18 07:46:03;;;;;;;1.53;1.30;;;;;;;9.63;85.92;101462.34;5072710;28;20544;-74
2021/10/18 07:48:28;;;;;;;2.50;1.40;;;;;;;9.68;84.95;101466.94;5072641;28;20611;-72
2021/10/18 07:50:54;;;;;;;2.43;1.60;;;;;;;9.74;84.89;101454.94;5074565;28;20176;-72
2021/10/18 07:53:19;;;;;;;1.93;1.20;;;;;;;9.79;84.65;101457.63;5094833;28;20170;-72
2021/10/18 07:55:44;;;;;;;1.40;1.30;;;;;;;9.87;84.11;101462.50;5094444;28;20658;-72
2021/10/18 07:58:10;;;;;;;1.13;1.10;;;;;;;9.95;83.68;101458.34;5094934;28;20613;-72
2021/10/18 08:00:35;;;;;;;1.13;1.03;;;;;;;10.04;83.14;101462.94;5076526;28;20180;-73
2021/10/18 08:03:01;;;;;;;1.97;1.37;;;;;;;10.09;81.21;101460.16;5076461;28;20192;-71
2021/10/18 08:05:26;;;;;;;2.83;1.10;;;;;;;10.20;82.88;101469.13;5076040;28;20237;-71
2021/10/18 08:07:52;;;;;;;1.87;1.17;;;;;;;10.25;82.69;101471.84;5075260;28;20186;-72
2021/10/18 08:10:25;;;;;;;3.73;1.47;;;;;;;10.38;81.84;101457.53;5076200;28;20181;-72
2021/10/18 08:12:59;;;;;;;2.20;1.30;;;;;;;10.46;81.02;101466.22;5076464;28;20659;-72
2021/10/18 08:15:26;;;;;;;1.53;1.43;;;;;;;10.55;80.78;101465.31;5094350;28;20196;-72
2021/10/18 08:17:52;;;;;;;2.27;1.30;;;;;;;10.59;80.17;101457.38;5094402;28;20178;-72
2021/10/18 08:20:19;;;;;;;1.20;1.10;;;;;;;10.67;81.21;101467.69;5093869;28;20185;-72
2021/10/18 08:22:45;;;;;;;2.70;1.80;;;;;;;10.65;79.85;101465.25;5075522;28;20177;-72
2021/10/18 08:25:10;;;;;;;1.33;1.23;;;;;;;10.72;80.37;101479.41;5093273;28;20286;-72
2021/10/18 08:27:36;;;;;;;3.43;1.20;;;;;;;10.78;80.86;101480.16;5075461;28;20268;-72
2021/10/18 08:30:04;;;;;;;0.80;0.80;;;;;;;10.80;78.82;101471.66;5090834;28;20193;-71
2021/10/18 08:32:29;;;;;;;0.80;0.80;;;;;;;10.89;78.61;101475.44;5092675;28;20311;-72
2021/10/18 08:34:55;;;;;;;5.77;1.97;;;;;;;10.97;79.67;101472.03;5080163;28;20272;-72
2021/10/18 08:37:20;;;;;;;1.70;0.83;;;;;;;11.05;78.03;101471.44;5092729;28;20178;-72
2021/10/18 08:39:59;;;;;;;1.60;0.83;;;;;;;11.16;77.13;101472.16;5075064;28;20182;-72
2021/10/18 08:42:30;;;;;;;1.97;1.60;;;;;;;11.32;78.46;101468.94;5093129;28;20177;-72
2021/10/18 08:44:55;;;;;;;2.07;1.57;;;;;;;11.48;77.31;101471.50;5092928;28;20318;-72
2021/10/18 08:47:27;;;;;;;1.33;1.20;;;;;;;11.54;75.38;101479.34;5075054;28;20178;-72
2021/10/18 08:49:53;;;;;;;1.77;1.53;;;;;;;11.58;75.01;101479.59;5074077;28;20177;-72
2021/10/18 08:52:20;;;;;;;1.57;1.33;;;;;;;11.60;75.92;101478.19;5093073;28;20178;-72
2021/10/18 08:54:46;;;;;;;1.27;0.90;;;;;;;11.58;75.82;101471.38;5091710;28;20399;-72
2021/10/18 08:57:12;;;;;;;1.10;1.00;;;;;;;11.52;74.52;101473.34;5093135;28;20261;-72
2021/10/18 08:59:37;;;;;;;2.23;1.30;;;;;;;11.49;75.09;101465.75;5074882;28;20174;-72
2021/10/18 09:02:03;;;;;;;1.67;1.03;;;;;;;11.49;74.74;101471.22;5091922;28;20182;-72
2021/10/18 09:04:30;;;;;;;1.07;1.00;;;;;;;11.58;73.73;101465.91;5071080;28;20206;-72
2021/10/18 09:06:58;;;;;;;0.90;0.70;;;;;;;11.67;73.90;101469.63;5091088;28;20189;-72
2021/10/18 09:09:28;;;;;;;1.43;1.13;;;;;;;11.77;75.07;101477.69;5075098;28;20530;-72
2021/10/18 09:11:56;;;;;;;1.03;0.87;;;;;;;11.81;74.60;101478.78;5088734;28;20268;-72
2021/10/18 09:14:22;;;;;;;1.77;1.20;;;;;;;11.81;74.04;101470.56;5092517;28;20655;-72
2021/10/18 09:16:48;;;;;;;1.13;1.00;;;;;;;11.87;73.41;101474.88;5074450;28;20272;-72
2021/10/18 09:19:22;;;;;;;1.10;1.00;;;;;;;11.96;72.70;101479.66;5074542;28;20223;-72
2021/10/18 09:21:54;;;;;;;1.47;1.27;;;;;;;12.00;73.55;101481.50;5074360;28;20178;-72
2021/10/18 09:24:34;;;;;;;1.37;1.07;;;;;;;12.04;72.06;101484.50;5092325;28;20626;-72
2021/10/18 09:27:22;;;;;;;2.13;1.93;;;;;;;12.04;70.64;101487.25;5092596;28;20166;-72
2021/10/18 09:29:51;;;;;;;1.10;1.07;;;;;;;12.09;72.38;101490.72;5073807;28;20649;-72
2021/10/18 09:32:18;;;;;;;2.63;1.70;;;;;;;12.20;73.53;101485.91;5074309;28;20206;-72
2021/10/18 09:34:43;;;;;;;1.60;1.50;;;;;;;12.31;71.45;101498.34;5092244;28;20201;-72
2021/10/18 09:37:11;;;;;;;3.07;1.13;;;;;;;12.36;71.05;101503.75;5091753;28;20225;-72
2021/10/18 09:39:41;;;;;;;1.50;1.40;;;;;;;12.41;71.13;101500.09;5083202;28;20234;-73
2021/10/18 09:42:18;;;;;;;0.97;0.87;;;;;;;12.48;71.04;101503.28;5071175;28;20177;-72
2021/10/18 10:53:08;;;;;;;1.83;1.30;;;;;;;13.52;68.51;101464.41;5091333;28;20245;-72
2021/10/18 10:55:34;;;;;;;1.20;1.10;;;;;;;13.59;68.24;101463.97;5090973;28;20184;-72
2021/10/18 10:58:02;;;;;;;1.40;1.20;;;;;;;13.72;67.39;101489.78;5091350;28;20174;-72
2021/10/18 11:00:35;;;;;;;1.17;1.07;;;;;;;13.73;66.31;101456.53;5073154;28;20174;-72
2021/10/18 11:03:30;;;;;;;1.80;1.50;;;;;;;13.79;66.77;101449.00;5091225;28;20174;-72
2021/10/18 11:06:15;;;;;;;1.43;1.27;;;;;;;13.91;68.43;101458.34;5072527;28;20210;-72
2021/10/18 11:08:46;;;;;;;1.80;1.40;;;;;;;13.94;68.23;101454.16;5091101;28;20174;-72
2021/10/18 11:11:22;;;;;;;4.10;1.10;;;;;;;13.85;66.35;101453.25;5072973;28;20727;-71
2021/10/18 11:13:58;;;;;;;5.87;1.50;;;;;;;13.87;67.46;101462.00;5091212;28;20219;-72
2021/10/18 11:16:28;;;;;;;1.43;0.90;;;;;;;13.85;65.82;101445.03;5072878;28;20170;-72
2021/10/18 11:18:56;;;;;;;1.23;1.13;;;;;;;13.90;66.22;101442.19;5072912;28;20177;-72
2021/10/18 11:21:24;;;;;;;0.87;0.87;;;;;;;13.97;65.61;101448.84;5072782;28;20181;-72
2021/10/18 11:23:54;;;;;;;1.30;1.10;;;;;;;14.01;66.42;101613.91;5091108;28;20180;-72
2021/10/18 11:26:19;;;;;;;1.20;1.10;;;;;;;14.08;66.35;101570.38;5090437;28;20667;-72
2021/10/18 11:28:45;;;;;;;2.07;1.27;;;;;;;14.07;66.69;101447.81;5072793;28;20177;-72
2021/10/18 11:31:11;;;;;;;1.60;1.50;;;;;;;14.12;66.36;101433.94;5073028;28;20178;-72
2021/10/18 11:33:36;;;;;;;1.57;1.23;;;;;;;14.08;66.28;101443.13;5090589;28;20174;-72
2021/10/18 11:36:15;;;;;;;0.80;0.80;;;;;;;13.95;65.65;101442.88;5072767;28;20268;-72
2021/10/18 11:38:40;;;;;;;5.80;1.80;;;;;;;14.00;67.29;101441.94;5090871;28;20518;-72
2021/10/18 11:41:06;;;;;;;2.17;1.43;;;;;;;14.03;66.91;101435.00;5090690;28;20169;-72
2021/10/18 11:43:34;;;;;;;0.90;0.87;;;;;;;14.05;66.48;101428.09;5091105;28;20532;-72
2021/10/18 11:45:59;;;;;;;2.33;1.50;;;;;;;14.15;66.64;101422.34;5072465;28;20194;-72
2021/10/18 11:48:27;;;;;;;1.30;1.20;;;;;;;14.28;66.66;101413.22;5090832;28;20211;-72
2021/10/18 11:50:59;;;;;;;1.03;1.00;;;;;;;14.35;66.57;101417.47;5090545;28;20596;-71
2021/10/18 11:53:26;;;;;;;1.43;0.70;;;;;;;14.26;65.43;101418.22;5091046;28;20200;-72
2021/10/18 11:55:53;;;;;;;2.13;1.27;;;;;;;14.29;65.94;101417.59;5071952;28;20173;-72
2021/10/18 11:58:27;;;;;;;1.07;1.00;;;;;;;14.38;65.93;101401.16;5070239;28;20269;-72
2021/10/18 12:01:08;;;;;;;0.87;0.83;;;;;;;14.37;66.60;101391.28;5090434;28;20166;-72
2021/10/18 12:03:35;;;;;;;1.50;1.33;;;;;;;14.35;66.23;101392.75;5088891;28;20185;-72
2021/10/18 12:06:04;;;;;;;1.40;1.30;;;;;;;14.42;66.48;101395.84;5090344;28;20209;-74
2021/10/18 12:08:37;;;;;;;2.43;1.23;;;;;;;14.41;66.94;101388.72;5090493;28;20656;-73
2021/10/18 12:11:05;;;;;;;1.47;1.10;;;;;;;14.50;67.96;101392.38;5076631;28;20193;-73
2021/10/18 12:13:34;;;;;;;1.47;1.30;;;;;;;14.48;66.82;101384.44;5079189;28;20186;-74
2021/10/18 12:16:03;;;;;;;2.50;1.40;;;;;;;14.53;66.41;101376.06;5071236;28;20182;-73
2021/10/18 12:18:28;;;;;;;4.33;3.53;;;;;;;14.57;66.56;101366.03;5073547;28;20502;-73
2021/10/18 12:21:07;;;;;;;1.67;1.37;;;;;;;14.61;67.79;101368.16;5070728;28;20252;-73
2021/10/18 12:23:45;;;;;;;1.20;1.10;;;;;;;14.66;66.43;101363.34;5069528;28;20190;-73
2021/10/18 12:26:17;;;;;;;1.27;1.23;;;;;;;14.57;67.37;101367.97;5054041;28;20182;-73
2021/10/18 12:29:04;;;;;;;1.30;1.20;;;;;;;14.42;66.59;101355.41;5090336;28;20162;-73
2021/10/18 12:31:39;;;;;;;1.40;1.30;;;;;;;14.41;68.20;101352.97;5089605;28;20194;-73
2021/10/18 12:34:07;;;;;;;3.13;1.30;;;;;;;14.37;68.03;101361.06;5090067;28;20201;-73